createdAt,value
2023-01-29T00:01:54.656Z,54.13
2023-01-29T00:04:21.075Z,56.07
2023-01-29T00:06:47.511Z,55.30
2023-01-29T00:09:14.530Z,57.33
2023-01-29T00:11:41.055Z,62.83
2023-01-29T00:14:07.958Z,54.63
2023-01-29T00:16:34.367Z,54.87
2023-01-29T00:19:02.299Z,55.97
2023-01-29T00:21:30.998Z,56.50
2023-01-29T00:23:57.983Z,52.63
2023-01-29T00:26:24.586Z,52.17
2023-01-29T00:28:51.098Z,53.83
2023-01-29T00:31:22.555Z,55.23
2023-01-29T00:33:49.433Z,55.07
2023-01-29T00:36:18.016Z,56.67
2023-01-29T00:38:44.574Z,58.67
2023-01-29T00:41:34.652Z,57.42
2023-01-29T00:44:20.423Z,53.50
2023-01-29T00:46:46.868Z,54.70
2023-01-29T00:49:13.455Z,52.87
2023-01-29T00:51:39.930Z,56.53
2023-01-29T00:54:09.662Z,52.80
2023-01-29T00:56:37.303Z,53.03
2023-01-29T00:59:04.446Z,52.30
2023-01-29T01:01:49.792Z,55.60
2023-01-29T01:04:16.208Z,50.83
2023-01-29T01:06:43.146Z,52.47
2023-01-29T01:09:29.162Z,57.57
2023-01-29T01:11:55.642Z,49.53
2023-01-29T01:14:22.038Z,53.47
2023-01-29T01:16:49.081Z,53.23
2023-01-29T01:19:18.257Z,51.77
2023-01-29T01:21:46.970Z,56.07
2023-01-29T01:24:13.476Z,57.63
2023-01-29T01:26:39.934Z,56.30
2023-01-29T01:29:06.588Z,48.43
2023-01-29T01:31:33.053Z,50.47
2023-01-29T01:33:59.449Z,51.50
2023-01-29T01:36:25.905Z,50.57
2023-01-29T01:38:52.434Z,50.20
2023-01-29T01:41:21.783Z,53.97
2023-01-29T01:43:58.550Z,54.87
2023-01-29T01:46:28.724Z,51.23
2023-01-29T01:49:02.193Z,49.80
2023-01-29T01:51:32.638Z,50.80
2023-01-29T01:54:06.474Z,55.70
2023-01-29T01:56:44.401Z,53.20
2023-01-29T01:59:13.202Z,53.53
2023-01-29T02:01:43.446Z,53.90
2023-01-29T02:04:41.114Z,50.07
2023-01-29T02:07:29.836Z,54.23
2023-01-29T02:10:16.820Z,53.00
2023-01-29T02:12:45.359Z,55.03
2023-01-29T02:15:13.610Z,49.80
2023-01-29T02:17:40.206Z,48.60
2023-01-29T02:20:18.644Z,51.00
2023-01-29T02:22:55.250Z,51.53
2023-01-29T02:25:59.225Z,51.37
2023-01-29T02:28:36.657Z,51.67
2023-01-29T02:31:12.511Z,52.10
2023-01-29T02:34:01.116Z,50.93
2023-01-29T02:36:35.808Z,51.10
2023-01-29T02:39:25.525Z,50.95
2023-01-29T02:42:03.085Z,54.00
2023-01-29T02:44:32.330Z,50.53
2023-01-29T02:47:12.471Z,57.20
2023-01-29T02:50:07.293Z,50.43
2023-01-29T02:52:43.174Z,48.63
2023-01-29T02:55:18.274Z,49.30
2023-01-29T03:00:18.562Z,52.77
2023-01-29T03:02:52.305Z,50.03
2023-01-29T03:05:28.530Z,55.13
2023-01-29T03:08:02.738Z,53.60
2023-01-29T03:10:38.537Z,57.10
2023-01-29T03:13:18.002Z,54.73
2023-01-29T03:15:51.173Z,52.73
2023-01-29T03:18:31.708Z,59.40
2023-01-29T03:21:04.004Z,57.43
2023-01-29T03:23:53.598Z,59.93
2023-01-29T03:26:40.956Z,59.70
2023-01-29T03:29:28.310Z,56.83
2023-01-29T03:32:08.771Z,59.17
2023-01-29T03:34:42.026Z,54.50
2023-01-29T03:37:16.149Z,58.30
2023-01-29T03:39:42.650Z,51.73
2023-01-29T03:42:32.101Z,53.13
2023-01-29T03:45:05.328Z,57.97
2023-01-29T03:47:40.431Z,55.07
2023-01-29T03:50:29.755Z,55.40
2023-01-29T03:53:08.362Z,53.60
2023-01-29T03:55:44.826Z,52.10
2023-01-29T03:58:33.867Z,55.43
2023-01-29T04:01:05.005Z,51.90
2023-01-29T04:03:38.105Z,52.88
2023-01-29T04:06:11.242Z,55.20
2023-01-29T04:09:01.766Z,58.33
2023-01-29T04:11:29.298Z,56.23
2023-01-29T04:13:57.334Z,51.17
2023-01-29T04:16:31.848Z,58.60
2023-01-29T04:18:59.412Z,51.38
2023-01-29T04:21:27.013Z,55.20
2023-01-29T04:23:54.218Z,53.87
2023-01-29T04:26:50.718Z,54.47
2023-01-29T04:29:40.462Z,50.83
2023-01-29T04:32:31.769Z,50.43
2023-01-29T04:35:08.870Z,52.80
2023-01-29T04:37:50.475Z,54.33
2023-01-29T04:40:39.278Z,52.27
2023-01-29T04:43:19.782Z,57.83
2023-01-29T04:46:05.031Z,54.17
2023-01-29T04:49:06.558Z,51.17
2023-01-29T04:51:47.382Z,52.20
2023-01-29T04:54:27.077Z,50.03
2023-01-29T04:57:01.724Z,52.40
2023-01-29T04:59:45.688Z,52.40
2023-01-29T05:02:13.352Z,54.60
2023-01-29T05:04:41.736Z,52.07
2023-01-29T05:07:12.396Z,56.87
2023-01-29T05:09:42.067Z,56.23
2023-01-29T05:12:11.660Z,52.73
2023-01-29T05:14:41.352Z,52.07
2023-01-29T05:17:14.589Z,55.77
2023-01-29T05:19:41.176Z,51.53
2023-01-29T05:22:10.853Z,52.03
2023-01-29T05:24:37.507Z,51.07
2023-01-29T05:27:22.638Z,53.70
2023-01-29T05:29:49.199Z,50.72
2023-01-29T05:32:16.430Z,54.13
2023-01-29T05:34:43.016Z,49.87
2023-01-29T05:37:10.647Z,53.40
2023-01-29T05:39:37.019Z,52.30
2023-01-29T05:42:03.481Z,54.40
2023-01-29T05:44:29.879Z,54.30
2023-01-29T05:46:56.461Z,48.10
2023-01-29T05:49:22.866Z,56.10
2023-01-29T05:51:49.319Z,53.90
2023-01-29T05:54:15.747Z,55.67
2023-01-29T05:56:42.099Z,55.70
2023-01-29T05:59:08.735Z,55.97
2023-01-29T06:01:35.131Z,51.53
2023-01-29T06:04:01.717Z,54.07
2023-01-29T06:06:28.114Z,54.53
2023-01-29T06:08:55.968Z,51.97
2023-01-29T06:11:22.657Z,56.87
2023-01-29T06:13:49.122Z,54.43
2023-01-29T06:16:15.790Z,60.10
2023-01-29T06:18:42.642Z,53.93
2023-01-29T06:21:11.727Z,54.63
2023-01-29T06:23:38.497Z,56.70
2023-01-29T06:26:11.414Z,56.57
2023-01-29T06:28:38.023Z,54.65
2023-01-29T06:33:53.245Z,54.53
2023-01-29T06:36:19.630Z,58.33
2023-01-29T06:38:47.129Z,54.43
2023-01-29T06:41:17.688Z,52.67
2023-01-29T06:43:45.027Z,61.20
2023-01-29T06:46:11.600Z,52.97
2023-01-29T06:48:37.969Z,51.78
2023-01-29T06:51:06.091Z,54.50
2023-01-29T06:53:33.696Z,53.00
2023-01-29T06:56:00.174Z,51.70
2023-01-29T06:58:26.694Z,55.43
2023-01-29T07:00:53.285Z,57.33
2023-01-29T07:03:21.051Z,57.80
2023-01-29T07:05:52.533Z,51.78
2023-01-29T07:08:19.448Z,58.60
2023-01-29T07:10:45.907Z,61.55
2023-01-29T07:13:12.317Z,55.90
2023-01-29T07:15:38.689Z,59.28
2023-01-29T07:18:11.853Z,56.77
2023-01-29T07:20:40.520Z,55.03
2023-01-29T07:23:08.768Z,57.60
2023-01-29T07:25:35.177Z,53.50
2023-01-29T07:28:01.815Z,53.90
2023-01-29T07:30:28.531Z,57.40
2023-01-29T07:32:55.084Z,52.07
2023-01-29T07:35:21.936Z,57.95
2023-01-29T07:37:51.389Z,59.47
2023-01-29T07:40:18.499Z,56.95
2023-01-29T07:42:45.482Z,56.38
2023-01-29T07:45:12.179Z,61.92
2023-01-29T07:47:38.662Z,62.72
2023-01-29T07:50:05.777Z,64.75
2023-01-29T07:52:33.646Z,56.30
2023-01-29T07:55:00.050Z,58.10
2023-01-29T07:57:26.450Z,59.83
2023-01-29T07:59:52.780Z,58.58
2023-01-29T08:02:19.206Z,59.22
2023-01-29T08:04:45.631Z,52.10
2023-01-29T08:07:12.066Z,59.00
2023-01-29T08:09:38.439Z,54.00
2023-01-29T08:12:04.991Z,60.00
2023-01-29T08:14:31.467Z,63.33
2023-01-29T08:16:57.942Z,62.72
2023-01-29T08:19:24.348Z,55.65
2023-01-29T08:21:50.811Z,56.43
2023-01-29T08:24:17.325Z,59.95
2023-01-29T08:26:43.776Z,57.72
2023-01-29T08:29:11.563Z,53.97
2023-01-29T08:31:38.076Z,55.50
2023-01-29T08:34:04.562Z,51.10
2023-01-29T08:36:31.038Z,55.53
2023-01-29T08:38:57.474Z,64.18
2023-01-29T08:41:23.852Z,59.83
2023-01-29T08:43:50.286Z,62.53
2023-01-29T08:46:16.706Z,57.85
2023-01-29T08:48:43.206Z,57.63
2023-01-29T08:51:09.713Z,55.47
2023-01-29T08:53:36.055Z,59.27
2023-01-29T08:56:02.584Z,53.95
2023-01-29T08:58:29.014Z,54.00
2023-01-29T09:00:55.407Z,58.70
2023-01-29T09:03:21.879Z,55.47
2023-01-29T09:05:48.482Z,54.58
2023-01-29T09:08:15.474Z,60.25
2023-01-29T09:10:41.875Z,59.83
2023-01-29T09:13:09.281Z,57.58
2023-01-29T09:15:35.653Z,55.47
2023-01-29T09:18:05.606Z,57.42
2023-01-29T09:20:32.673Z,56.15
2023-01-29T09:23:03.306Z,58.15
2023-01-29T09:25:29.658Z,52.28
2023-01-29T09:27:56.023Z,55.67
2023-01-29T09:30:22.398Z,54.30
2023-01-29T09:32:53.511Z,54.03
2023-01-29T09:35:22.724Z,52.42
2023-01-29T09:37:49.995Z,53.83
2023-01-29T09:40:40.871Z,59.55
2023-01-29T09:43:18.182Z,54.40
2023-01-29T09:45:55.034Z,58.53
2023-01-29T09:48:25.237Z,55.80
2023-01-29T09:50:55.143Z,52.25
2023-01-29T09:53:29.443Z,53.72
2023-01-29T09:56:18.004Z,57.00
2023-01-29T09:58:44.577Z,53.60
2023-01-29T10:01:23.993Z,57.58
2023-01-29T10:04:21.251Z,53.22
2023-01-29T10:07:22.509Z,54.85
2023-01-29T10:10:23.762Z,52.05
2023-01-29T10:13:14.372Z,51.42
2023-01-29T10:15:55.179Z,53.05
2023-01-29T10:18:27.343Z,51.78
2023-01-29T10:21:02.152Z,52.20
2023-01-29T10:23:34.566Z,54.17
2023-01-29T10:26:01.623Z,53.00
2023-01-29T10:28:28.040Z,55.03
2023-01-29T10:30:59.853Z,53.72
2023-01-29T10:33:48.741Z,53.03
2023-01-29T10:36:28.656Z,50.78
2023-01-29T10:38:56.032Z,55.30
2023-01-29T10:42:05.443Z,55.95
2023-01-29T10:44:44.231Z,53.30
2023-01-29T10:47:38.242Z,56.72
2023-01-29T10:50:13.426Z,51.17
2023-01-29T10:55:15.464Z,52.83
2023-01-29T10:57:51.089Z,53.95
2023-01-29T11:00:17.802Z,50.33
2023-01-29T11:02:48.220Z,48.65
2023-01-29T11:05:20.660Z,51.40
2023-01-29T11:07:49.393Z,55.55
2023-01-29T11:10:21.596Z,49.05
2023-01-29T11:12:48.073Z,56.05
2023-01-29T11:15:30.588Z,50.83
2023-01-29T11:18:14.106Z,53.35
2023-01-29T11:20:43.103Z,53.53
2023-01-29T11:23:42.004Z,54.65
2023-01-29T11:26:12.718Z,53.45
2023-01-29T11:28:40.458Z,53.53
2023-01-29T11:31:21.813Z,57.05
2023-01-29T11:33:50.391Z,53.72
2023-01-29T11:36:32.905Z,50.72
2023-01-29T11:39:08.045Z,54.83
2023-01-29T11:44:41.080Z,54.65
2023-01-29T11:47:16.514Z,51.10
2023-01-29T11:49:49.592Z,52.78
2023-01-29T11:52:19.235Z,53.55
2023-01-29T11:54:51.958Z,55.60
2023-01-29T11:57:33.992Z,54.00
2023-01-29T12:00:07.776Z,55.10
2023-01-29T12:02:43.047Z,52.67
2023-01-29T12:05:22.112Z,59.05
2023-01-29T12:07:52.705Z,52.25
2023-01-29T12:10:30.627Z,55.53
2023-01-29T12:13:23.164Z,52.42
2023-01-29T12:15:49.801Z,58.17
2023-01-29T12:18:28.004Z,52.85
2023-01-29T12:21:03.775Z,57.13
2023-01-29T12:23:41.456Z,51.95
2023-01-29T12:26:15.911Z,52.55
2023-01-29T12:29:01.027Z,55.90
2023-01-29T12:31:53.426Z,52.55
2023-01-29T12:34:43.451Z,54.53
2023-01-29T12:37:40.901Z,56.28
2023-01-29T12:40:17.017Z,53.40
2023-01-29T12:42:49.657Z,58.08
2023-01-29T12:45:22.639Z,52.35
2023-01-29T12:47:56.114Z,53.97
2023-01-29T12:50:33.254Z,55.30
2023-01-29T12:53:05.144Z,55.10
2023-01-29T12:55:42.950Z,55.22
2023-01-29T12:58:20.067Z,55.67
2023-01-29T13:00:50.752Z,57.72
2023-01-29T13:03:53.022Z,59.05
2023-01-29T13:06:27.964Z,56.15
2023-01-29T13:08:58.782Z,52.85
2023-01-29T13:11:47.957Z,59.95
2023-01-29T13:14:25.179Z,54.97
2023-01-29T13:17:01.293Z,53.28
2023-01-29T13:19:33.500Z,52.42
2023-01-29T13:22:05.336Z,56.63
2023-01-29T13:24:38.806Z,56.50
2023-01-29T13:27:06.233Z,54.78
2023-01-29T13:29:33.287Z,49.33
2023-01-29T13:32:02.649Z,51.42
2023-01-29T13:34:32.803Z,52.10
2023-01-29T13:37:12.278Z,54.47
2023-01-29T13:39:46.397Z,55.30
2023-01-29T13:42:37.551Z,56.33
2023-01-29T13:45:07.093Z,58.65
2023-01-29T13:47:37.439Z,56.28
2023-01-29T13:50:24.284Z,60.42
2023-01-29T13:52:57.688Z,58.10
2023-01-29T13:55:40.098Z,48.17
2023-01-29T13:58:08.812Z,55.08
2023-01-29T14:00:35.146Z,57.80
2023-01-29T14:03:01.492Z,54.50
2023-01-29T14:05:31.042Z,54.08
2023-01-29T14:07:59.408Z,58.67
2023-01-29T14:10:29.837Z,55.95
2023-01-29T14:13:11.468Z,48.80
2023-01-29T14:15:41.848Z,52.03
2023-01-29T14:18:08.207Z,49.33
2023-01-29T14:20:45.919Z,54.78
2023-01-29T14:23:35.911Z,54.30
2023-01-29T14:26:05.320Z,51.47
2023-01-29T14:28:34.291Z,53.80
2023-01-29T14:31:01.288Z,48.92
2023-01-29T14:33:36.749Z,49.85
2023-01-29T14:36:11.315Z,52.83
2023-01-29T14:38:39.310Z,53.50
2023-01-29T14:41:29.582Z,53.85
2023-01-29T14:44:37.802Z,52.42
2023-01-29T14:47:04.874Z,56.67
2023-01-29T14:49:57.748Z,53.70
2023-01-29T14:52:33.148Z,62.08
2023-01-29T14:55:02.662Z,51.60
2023-01-29T14:57:30.588Z,56.05
2023-01-29T15:00:01.616Z,52.78
2023-01-29T15:02:37.025Z,57.60
2023-01-29T15:05:10.659Z,50.55
2023-01-29T15:07:51.731Z,49.58
2023-01-29T15:10:38.058Z,48.42
2023-01-29T15:13:32.819Z,49.45
2023-01-29T15:16:17.586Z,48.10
2023-01-29T15:18:44.175Z,50.22
2023-01-29T15:21:13.217Z,52.60
2023-01-29T15:23:40.816Z,51.70
2023-01-29T15:26:11.682Z,50.40
2023-01-29T15:28:39.206Z,52.47
2023-01-29T15:31:11.888Z,48.58
2023-01-29T15:33:41.059Z,48.78
2023-01-29T15:36:11.808Z,48.47
2023-01-29T15:38:38.231Z,49.47
2023-01-29T15:41:20.584Z,47.40
2023-01-29T15:43:56.533Z,47.47
2023-01-29T15:46:28.194Z,46.50
2023-01-29T15:48:57.141Z,42.13
2023-01-29T15:51:27.936Z,41.70
2023-01-29T15:54:00.599Z,44.60
2023-01-29T15:56:36.930Z,43.65
2023-01-29T15:59:09.758Z,42.40
2023-01-29T16:01:36.412Z,38.33
2023-01-29T16:04:03.830Z,35.05
2023-01-29T16:06:36.995Z,36.95
2023-01-29T16:09:05.142Z,34.30
2023-01-29T16:11:33.189Z,36.50
2023-01-29T16:14:01.219Z,33.17
2023-01-29T16:16:28.358Z,29.73
2023-01-29T16:19:00.351Z,27.85
2023-01-29T16:21:37.806Z,24.98
2023-01-29T16:24:13.870Z,30.45
2023-01-29T16:26:45.263Z,30.98
2023-01-29T16:29:16.975Z,26.15
2023-01-29T16:31:45.748Z,29.77
2023-01-29T16:34:25.781Z,26.40
2023-01-29T16:36:54.396Z,27.58
2023-01-29T16:39:24.064Z,28.70
2023-01-29T16:42:21.484Z,30.60
2023-01-29T16:44:52.213Z,29.23
2023-01-29T16:47:33.693Z,29.75
2023-01-29T16:50:20.278Z,32.50
2023-01-29T16:53:10.746Z,29.42
2023-01-29T16:55:41.035Z,28.08
2023-01-29T16:58:20.052Z,32.72
2023-01-29T17:00:52.669Z,30.92
2023-01-29T17:03:20.075Z,34.38
2023-01-29T17:05:47.271Z,34.25
2023-01-29T17:08:30.385Z,31.85
2023-01-29T17:10:56.930Z,31.50
2023-01-29T17:13:38.472Z,35.83
2023-01-29T17:16:20.114Z,31.33
2023-01-29T17:18:46.533Z,32.85
2023-01-29T17:21:12.878Z,34.47
2023-01-29T17:23:39.761Z,30.45
2023-01-29T17:26:13.318Z,34.47
2023-01-29T17:28:40.942Z,35.75
2023-01-29T17:31:07.903Z,33.90
2023-01-29T17:33:43.261Z,36.33
2023-01-29T17:36:15.340Z,33.15
2023-01-29T17:38:42.303Z,31.85
2023-01-29T17:41:15.862Z,34.38
2023-01-29T17:43:44.086Z,36.08
2023-01-29T17:46:13.486Z,32.60
2023-01-29T17:48:40.343Z,35.65
2023-01-29T17:51:12.550Z,35.97
2023-01-29T17:53:47.338Z,33.17
2023-01-29T17:56:21.097Z,32.42
2023-01-29T17:58:47.443Z,39.10
2023-01-29T18:01:13.911Z,35.95
2023-01-29T18:03:40.318Z,35.08
2023-01-29T18:06:09.035Z,34.25
2023-01-29T18:08:37.932Z,35.10
2023-01-29T18:11:04.607Z,33.33
2023-01-29T18:13:31.215Z,36.13
2023-01-29T18:15:57.677Z,34.22
2023-01-29T18:18:24.413Z,34.00
2023-01-29T18:20:51.071Z,32.90
2023-01-29T18:23:17.867Z,34.95
2023-01-29T18:25:44.783Z,33.83
2023-01-29T18:28:17.141Z,35.80
2023-01-29T18:30:46.910Z,35.88
2023-01-29T18:33:14.301Z,37.58
2023-01-29T18:35:40.755Z,40.40
2023-01-29T18:38:07.415Z,36.03
2023-01-29T18:40:33.776Z,34.58
2023-01-29T18:43:00.824Z,37.53
2023-01-29T18:45:28.470Z,33.75
2023-01-29T18:47:55.615Z,36.85
2023-01-29T18:50:26.142Z,35.38
2023-01-29T18:52:53.786Z,33.75
2023-01-29T18:55:20.789Z,36.35
2023-01-29T18:58:25.238Z,32.58
2023-01-29T19:00:33.865Z,33.72
2023-01-29T19:03:00.735Z,36.03
2023-01-29T19:05:27.136Z,30.63
2023-01-29T19:07:53.574Z,33.35
2023-01-29T19:10:19.936Z,36.83
2023-01-29T19:12:46.432Z,31.50
2023-01-29T19:15:12.834Z,32.70
2023-01-29T19:17:39.304Z,34.85
2023-01-29T19:20:06.203Z,32.83
2023-01-29T19:22:32.608Z,42.67
2023-01-29T19:24:59.088Z,39.92
2023-01-29T19:27:30.151Z,44.28
2023-01-29T19:29:58.054Z,39.33
2023-01-29T19:32:24.514Z,34.85
2023-01-29T19:34:51.467Z,36.92
2023-01-29T19:37:17.851Z,37.17
2023-01-29T19:39:44.183Z,35.88
2023-01-29T19:42:10.648Z,39.78
2023-01-29T19:44:38.931Z,35.00
2023-01-29T19:47:05.688Z,33.45
2023-01-29T19:49:33.939Z,34.60
2023-01-29T19:52:01.364Z,34.28
2023-01-29T19:54:28.156Z,30.83
2023-01-29T19:56:54.970Z,33.25
2023-01-29T19:59:21.444Z,39.55
2023-01-29T20:01:47.914Z,32.53
2023-01-29T20:04:14.287Z,33.85
2023-01-29T20:06:40.738Z,34.33
2023-01-29T20:09:07.297Z,33.70
2023-01-29T20:11:33.846Z,32.53
2023-01-29T20:14:00.247Z,34.55
2023-01-29T20:16:26.835Z,41.70
2023-01-29T20:18:53.236Z,33.78
2023-01-29T20:21:21.872Z,35.13
2023-01-29T20:23:50.102Z,34.17
2023-01-29T20:26:17.386Z,35.42
2023-01-29T20:28:46.359Z,36.25
2023-01-29T20:31:12.909Z,38.42
2023-01-29T20:33:40.282Z,39.38
2023-01-29T20:36:09.915Z,35.70
2023-01-29T20:38:36.504Z,37.95
2023-01-29T20:41:17.284Z,35.80
2023-01-29T20:43:45.133Z,40.60
2023-01-29T20:46:11.990Z,34.38
2023-01-29T20:48:38.573Z,36.58
2023-01-29T20:51:09.206Z,34.53
2023-01-29T20:53:36.872Z,38.15
2023-01-29T20:56:04.483Z,37.60
2023-01-29T20:58:31.267Z,35.58
2023-01-29T21:00:57.894Z,38.40
2023-01-29T21:03:24.253Z,38.50
2023-01-29T21:05:51.558Z,38.05
2023-01-29T21:08:17.975Z,35.65
2023-01-29T21:10:45.326Z,39.65
2023-01-29T21:13:12.154Z,38.92
2023-01-29T21:15:38.630Z,47.67
2023-01-29T21:18:06.573Z,32.65
2023-01-29T21:20:33.010Z,33.25
2023-01-29T21:22:59.444Z,39.45
2023-01-29T21:25:25.835Z,34.28
2023-01-29T21:27:52.200Z,30.92
2023-01-29T21:30:19.149Z,33.67
2023-01-29T21:32:46.047Z,34.33
2023-01-29T21:35:12.430Z,40.22
2023-01-29T21:37:38.854Z,35.42
2023-01-29T21:40:06.334Z,32.20
2023-01-29T21:42:51.070Z,33.63
2023-01-29T21:45:18.251Z,32.83
2023-01-29T21:47:44.876Z,32.72
2023-01-29T21:50:11.292Z,32.17
2023-01-29T21:52:38.091Z,30.58
2023-01-29T21:55:05.655Z,32.78
2023-01-29T21:57:32.048Z,34.67
2023-01-29T21:59:59.363Z,30.85
2023-01-29T22:02:27.632Z,32.40
2023-01-29T22:05:05.334Z,33.45
2023-01-29T22:07:42.714Z,35.42
2023-01-29T22:10:10.186Z,34.05
2023-01-29T22:12:36.568Z,29.40
2023-01-29T22:15:03.431Z,28.05
2023-01-29T22:17:29.923Z,32.05
2023-01-29T22:19:56.313Z,32.95
2023-01-29T22:22:22.854Z,34.45
2023-01-29T22:24:50.743Z,30.23
2023-01-29T22:27:17.145Z,31.90
2023-01-29T22:29:43.855Z,33.75
2023-01-29T22:32:11.313Z,33.08
2023-01-29T22:34:37.716Z,38.03
2023-01-29T22:37:04.182Z,33.83
2023-01-29T22:39:30.582Z,35.28
2023-01-29T22:41:56.972Z,31.30
2023-01-29T22:44:23.399Z,31.55
2023-01-29T22:46:50.417Z,37.05
2023-01-29T22:49:17.276Z,37.28
2023-01-29T22:51:43.648Z,36.85
2023-01-29T22:54:11.507Z,37.30
2023-01-29T22:56:38.028Z,36.65
2023-01-29T22:59:04.476Z,39.47
2023-01-29T23:01:31.887Z,41.25
2023-01-29T23:03:58.334Z,38.70
2023-01-29T23:06:24.886Z,37.55
2023-01-29T23:08:51.354Z,37.50
2023-01-29T23:11:20.464Z,37.88
2023-01-29T23:13:48.097Z,35.92
2023-01-29T23:16:16.423Z,40.28
2023-01-29T23:18:43.708Z,39.63
2023-01-29T23:21:11.027Z,37.67
2023-01-29T23:23:38.539Z,33.25
2023-01-29T23:26:25.452Z,37.13
2023-01-29T23:28:52.080Z,39.55
2023-01-29T23:31:18.565Z,33.97
2023-01-29T23:33:45.329Z,36.28
2023-01-29T23:36:11.882Z,36.95
2023-01-29T23:38:38.278Z,41.63
2023-01-29T23:41:04.780Z,37.63
2023-01-29T23:43:31.213Z,41.22
2023-01-29T23:45:57.867Z,36.15
2023-01-29T23:48:24.441Z,39.53
2023-01-29T23:50:51.255Z,39.28
2023-01-29T23:53:18.167Z,38.47
2023-01-29T23:56:01.797Z,37.17
2023-01-29T23:58:29.088Z,35.90
